sensor_id;sensor_type;location;lat;lon;timestamp;noise_LAeq;noise_LA_min;noise_LA_max;noise_LA01;noise_LA95
69608;Laerm;57251;52.248;4.812;2023-07-02T00:00:03;37.04;33.72;51.43;;
69608;Laerm;57251;52.248;4.812;2023-07-02T00:00:15;42.56;34.14;60.80;;
69608;Laerm;57251;52.248;4.812;2023-07-02T00:00:25;38.30;33.67;50.14;;
69608;Laerm;57251;52.248;4.812;2023-07-02T00:00:35;45.72;32.82;59.82;;
69608;Laerm;57251;52.248;4.812;2023-07-02T00:00:48;35.06;31.33;42.47;;
69608;Laerm;57251;52.248;4.812;2023-07-02T00:01:01;39.19;31.89;52.18;;
69608;Laerm;57251;52.248;4.812;2023-07-02T00:01:11;41.39;32.70;53.53;;
69608;Laerm;57251;52.248;4.812;2023-07-02T00:01:22;35.56;32.37;43.61;;
69608;Laerm;57251;52.248;4.812;2023-07-02T00:01:32;37.09;32.62;51.09;;
69608;Laerm;57251;52.248;4.812;2023-07-02T00:01:42;33.83;32.02;35.39;;
69608;Laerm;57251;52.248;4.812;2023-07-02T00:01:52;33.18;31.98;35.02;;
69608;Laerm;57251;52.248;4.812;2023-07-02T00:02:03;34.02;32.45;36.24;;
69608;Laerm;57251;52.248;4.812;2023-07-02T00:02:13;33.55;32.14;37.83;;
69608;Laerm;57251;52.248;4.812;2023-07-02T00:02:23;34.00;32.15;37.16;;
69608;Laerm;57251;52.248;4.812;2023-07-02T00:02:34;37.96;32.79;53.89;;
69608;Laerm;57251;52.248;4.812;2023-07-02T00:02:44;36.50;33.23;51.88;;
69608;Laerm;57251;52.248;4.812;2023-07-02T00:02:54;42.75;34.59;59.15;;
69608;Laerm;57251;52.248;4.812;2023-07-02T00:03:04;41.90;35.13;57.12;;
69608;Laerm;57251;52.248;4.812;2023-07-02T00:03:15;40.39;34.01;54.72;;
69608;Laerm;57251;52.248;4.812;2023-07-02T00:03:25;39.87;33.46;50.63;;
69608;Laerm;57251;52.248;4.812;2023-07-02T00:03:37;34.29;32.45;40.69;;
69608;Laerm;57251;52.248;4.812;2023-07-02T00:03:47;33.78;32.10;35.72;;
69608;Laerm;57251;52.248;4.812;2023-07-02T00:03:57;33.83;32.16;42.08;;
69608;Laerm;57251;52.248;4.812;2023-07-02T00:04:07;38.76;32.36;48.03;;
69608;Laerm;57251;52.248;4.812;2023-07-02T00:04:23;53.61;32.99;67.49;;
69608;Laerm;57251;52.248;4.812;2023-07-02T00:04:33;35.06;32.11;46.45;;
69608;Laerm;57251;52.248;4.812;2023-07-02T00:04:44;34.21;32.50;36.91;;
69608;Laerm;57251;52.248;4.812;2023-07-02T00:04:54;34.36;32.24;36.49;;
69608;Laerm;57251;52.248;4.812;2023-07-02T00:05:04;36.38;32.65;48.38;;
69608;Laerm;57251;52.248;4.812;2023-07-02T00:05:15;39.17;32.44;53.35;;
69608;Laerm;57251;52.248;4.812;2023-07-02T00:05:27;34.16;32.39;35.65;;
69608;Laerm;57251;52.248;4.812;2023-07-02T00:05:37;38.66;33.30;50.79;;
69608;Laerm;57251;52.248;4.812;2023-07-02T00:05:47;34.15;32.64;37.33;;
69608;Laerm;57251;52.248;4.812;2023-07-02T00:06:00;33.13;31.75;34.65;;
69608;Laerm;57251;52.248;4.812;2023-07-02T00:06:10;32.71;31.57;35.73;;
69608;Laerm;57251;52.248;4.812;2023-07-02T00:06:20;34.17;31.89;42.21;;
69608;Laerm;57251;52.248;4.812;2023-07-02T00:06:30;34.63;31.82;46.24;;
69608;Laerm;57251;52.248;4.812;2023-07-02T00:06:42;33.63;32.01;37.41;;
69608;Laerm;57251;52.248;4.812;2023-07-02T00:06:53;34.52;32.93;42.68;;
69608;Laerm;57251;52.248;4.812;2023-07-02T00:07:03;38.87;33.67;49.44;;
69608;Laerm;57251;52.248;4.812;2023-07-02T00:07:14;35.69;33.67;45.67;;
69608;Laerm;57251;52.248;4.812;2023-07-02T00:07:24;34.03;32.37;35.83;;
69608;Laerm;57251;52.248;4.812;2023-07-02T00:07:35;46.43;33.25;59.42;;
69608;Laerm;57251;52.248;4.812;2023-07-02T00:07:47;35.85;33.69;40.02;;
69608;Laerm;57251;52.248;4.812;2023-07-02T00:07:57;35.82;34.27;39.77;;
69608;Laerm;57251;52.248;4.812;2023-07-02T00:08:07;35.08;33.46;39.44;;
69608;Laerm;57251;52.248;4.812;2023-07-02T00:08:18;37.78;33.90;50.42;;
69608;Laerm;57251;52.248;4.812;2023-07-02T00:08:28;35.59;34.21;39.20;;
69608;Laerm;57251;52.248;4.812;2023-07-02T00:08:38;36.19;33.59;44.77;;
69608;Laerm;57251;52.248;4.812;2023-07-02T00:08:50;43.46;33.84;57.48;;
69608;Laerm;57251;52.248;4.812;2023-07-02T00:09:00;40.56;36.27;52.44;;
69608;Laerm;57251;52.248;4.812;2023-07-02T00:09:11;40.77;35.33;54.91;;
69608;Laerm;57251;52.248;4.812;2023-07-02T00:09:21;44.92;35.37;57.64;;
69608;Laerm;57251;52.248;4.812;2023-07-02T00:09:31;39.92;36.60;48.77;;
69608;Laerm;57251;52.248;4.812;2023-07-02T00:09:42;39.16;35.02;49.36;;
69608;Laerm;57251;52.248;4.812;2023-07-02T00:09:52;36.77;34.39;42.91;;
69608;Laerm;57251;52.248;4.812;2023-07-02T00:10:02;34.87;33.19;38.40;;
69608;Laerm;57251;52.248;4.812;2023-07-02T00:10:13;34.67;33.10;42.24;;
69608;Laerm;57251;52.248;4.812;2023-07-02T00:10:23;40.26;32.33;55.24;;
69608;Laerm;57251;52.248;4.812;2023-07-02T00:10:33;33.69;31.69;35.71;;
69608;Laerm;57251;52.248;4.812;2023-07-02T00:10:44;35.03;32.09;44.51;;
69608;Laerm;57251;52.248;4.812;2023-07-02T00:10:54;35.47;32.27;43.99;;
69608;Laerm;57251;52.248;4.812;2023-07-02T00:11:04;45.66;32.24;57.11;;
69608;Laerm;57251;52.248;4.812;2023-07-02T00:11:15;38.22;33.73;51.32;;
69608;Laerm;57251;52.248;4.812;2023-07-02T00:11:25;40.92;34.29;53.18;;
69608;Laerm;57251;52.248;4.812;2023-07-02T00:11:38;36.36;34.84;40.23;;
69608;Laerm;57251;52.248;4.812;2023-07-02T00:11:49;35.25;33.30;36.84;;
69608;Laerm;57251;52.248;4.812;2023-07-02T00:11:59;34.92;33.14;37.24;;
69608;Laerm;57251;52.248;4.812;2023-07-02T00:12:09;34.30;32.56;37.25;;
69608;Laerm;57251;52.248;4.812;2023-07-02T00:12:20;33.97;32.58;35.10;;
69608;Laerm;57251;52.248;4.812;2023-07-02T00:12:30;33.25;32.06;34.51;;
69608;Laerm;57251;52.248;4.812;2023-07-02T00:12:40;33.71;32.34;35.42;;
69608;Laerm;57251;52.248;4.812;2023-07-02T00:12:51;37.46;32.87;51.01;;
69608;Laerm;57251;52.248;4.812;2023-07-02T00:13:01;33.80;32.49;36.96;;
69608;Laerm;57251;52.248;4.812;2023-07-02T00:13:11;33.40;32.35;34.43;;
69608;Laerm;57251;52.248;4.812;2023-07-02T00:13:21;33.06;32.00;35.00;;
69608;Laerm;57251;52.248;4.812;2023-07-02T00:13:32;36.98;32.66;46.46;;
69608;Laerm;57251;52.248;4.812;2023-07-02T00:13:42;36.98;34.31;42.63;;
69608;Laerm;57251;52.248;4.812;2023-07-02T00:13:52;41.18;34.48;52.46;;
69608;Laerm;57251;52.248;4.812;2023-07-02T00:14:02;43.19;33.87;54.79;;
69608;Laerm;57251;52.248;4.812;2023-07-02T00:14:12;49.28;32.88;64.66;;
69608;Laerm;57251;52.248;4.812;2023-07-02T00:14:23;43.45;32.57;55.32;;
69608;Laerm;57251;52.248;4.812;2023-07-02T00:14:34;33.93;32.26;36.19;;
69608;Laerm;57251;52.248;4.812;2023-07-02T00:14:44;33.82;32.56;39.78;;
69608;Laerm;57251;52.248;4.812;2023-07-02T00:14:54;34.21;32.89;37.55;;
69608;Laerm;57251;52.248;4.812;2023-07-02T00:15:05;34.56;33.34;35.88;;
69608;Laerm;57251;52.248;4.812;2023-07-02T00:15:15;38.87;33.38;49.29;;
69608;Laerm;57251;52.248;4.812;2023-07-02T00:15:25;35.63;32.46;45.01;;
69608;Laerm;57251;52.248;4.812;2023-07-02T00:15:35;43.37;32.26;56.62;;
69608;Laerm;57251;52.248;4.812;2023-07-02T00:15:45;38.89;32.73;55.91;;
69608;Laerm;57251;52.248;4.812;2023-07-02T00:15:56;34.11;32.75;35.43;;
69608;Laerm;57251;52.248;4.812;2023-07-02T00:16:06;38.62;33.49;51.73;;
69608;Laerm;57251;52.248;4.812;2023-07-02T00:16:17;35.07;33.59;37.69;;
69608;Laerm;57251;52.248;4.812;2023-07-02T00:16:27;34.61;32.86;37.07;;
69608;Laerm;57251;52.248;4.812;2023-07-02T00:16:38;35.19;33.26;37.37;;
69608;Laerm;57251;52.248;4.812;2023-07-02T00:16:49;36.31;33.44;48.64;;
69608;Laerm;57251;52.248;4.812;2023-07-02T00:16:59;57.43;33.63;75.42;;
69608;Laerm;57251;52.248;4.812;2023-07-02T00:17:09;43.37;36.91;57.91;;
69608;Laerm;57251;52.248;4.812;2023-07-02T00:17:22;37.95;33.68;45.52;;
69608;Laerm;57251;52.248;4.812;2023-07-02T00:17:32;34.81;32.95;44.54;;
69608;Laerm;57251;52.248;4.812;2023-07-02T00:17:42;36.81;33.14;50.69;;
69608;Laerm;57251;52.248;4.812;2023-07-02T00:17:53;34.37;32.22;42.04;;
69608;Laerm;57251;52.248;4.812;2023-07-02T00:18:03;36.31;32.71;48.04;;
69608;Laerm;57251;52.248;4.812;2023-07-02T00:18:13;39.61;33.73;49.07;;
69608;Laerm;57251;52.248;4.812;2023-07-02T00:18:26;40.29;32.84;56.89;;
69608;Laerm;57251;52.248;4.812;2023-07-02T00:18:43;36.90;31.82;55.01;;
69608;Laerm;57251;52.248;4.812;2023-07-02T00:18:54;39.05;32.40;53.93;;
69608;Laerm;57251;52.248;4.812;2023-07-02T00:19:04;33.51;31.88;37.47;;
69608;Laerm;57251;52.248;4.812;2023-07-02T00:19:15;39.16;32.27;48.51;;
69608;Laerm;57251;52.248;4.812;2023-07-02T00:19:25;34.82;32.44;41.40;;
69608;Laerm;57251;52.248;4.812;2023-07-02T00:19:35;34.40;32.38;37.16;;
69608;Laerm;57251;52.248;4.812;2023-07-02T00:19:45;34.87;31.49;47.86;;
69608;Laerm;57251;52.248;4.812;2023-07-02T00:19:57;33.27;31.81;34.85;;
69608;Laerm;57251;52.248;4.812;2023-07-02T00:20:07;32.99;31.47;38.38;;
69608;Laerm;57251;52.248;4.812;2023-07-02T00:20:18;33.00;31.48;34.94;;
69608;Laerm;57251;52.248;4.812;2023-07-02T00:20:29;33.36;31.63;35.50;;
69608;Laerm;57251;52.248;4.812;2023-07-02T00:20:40;33.02;31.81;35.41;;
69608;Laerm;57251;52.248;4.812;2023-07-02T00:20:51;33.67;32.26;38.36;;
69608;Laerm;57251;52.248;4.812;2023-07-02T00:21:02;37.18;33.20;50.89;;
69608;Laerm;57251;52.248;4.812;2023-07-02T00:21:15;42.72;32.47;58.28;;
69608;Laerm;57251;52.248;4.812;2023-07-02T00:21:28;33.48;32.02;38.25;;
69608;Laerm;57251;52.248;4.812;2023-07-02T00:21:38;34.09;32.11;40.21;;
69608;Laerm;57251;52.248;4.812;2023-07-02T00:21:48;37.80;31.88;49.34;;
69608;Laerm;57251;52.248;4.812;2023-07-02T00:21:59;33.96;31.82;40.60;;
69608;Laerm;57251;52.248;4.812;2023-07-02T00:22:09;52.12;33.18;66.70;;
69608;Laerm;57251;52.248;4.812;2023-07-02T00:22:20;47.76;32.97;63.21;;
69608;Laerm;57251;52.248;4.812;2023-07-02T00:22:30;37.17;32.42;44.95;;
69608;Laerm;57251;52.248;4.812;2023-07-02T00:22:41;33.73;32.58;35.19;;
69608;Laerm;57251;52.248;4.812;2023-07-02T00:22:56;34.67;32.46;41.73;;
69608;Laerm;57251;52.248;4.812;2023-07-02T00:23:06;34.72;32.93;38.25;;
69608;Laerm;57251;52.248;4.812;2023-07-02T00:23:18;33.81;32.12;36.03;;
69608;Laerm;57251;52.248;4.812;2023-07-02T00:23:30;38.30;31.92;52.77;;
69608;Laerm;57251;52.248;4.812;2023-07-02T00:23:40;33.24;31.92;36.61;;
69608;Laerm;57251;52.248;4.812;2023-07-02T00:23:50;32.84;31.39;34.17;;
69608;Laerm;57251;52.248;4.812;2023-07-02T00:24:01;32.70;31.38;34.48;;
69608;Laerm;57251;52.248;4.812;2023-07-02T00:24:11;36.72;32.08;51.24;;
69608;Laerm;57251;52.248;4.812;2023-07-02T00:24:22;47.48;33.14;60.61;;
69608;Laerm;57251;52.248;4.812;2023-07-02T00:24:32;35.14;32.99;41.76;;
69608;Laerm;57251;52.248;4.812;2023-07-02T00:24:42;44.69;35.14;60.61;;
69608;Laerm;57251;52.248;4.812;2023-07-02T00:24:52;34.46;32.98;38.01;;
69608;Laerm;57251;52.248;4.812;2023-07-02T00:25:05;33.99;32.59;36.65;;
69608;Laerm;57251;52.248;4.812;2023-07-02T00:25:16;35.12;32.14;46.73;;
69608;Laerm;57251;52.248;4.812;2023-07-02T00:25:26;36.86;31.79;45.85;;
69608;Laerm;57251;52.248;4.812;2023-07-02T00:25:36;43.50;31.93;58.27;;
69608;Laerm;57251;52.248;4.812;2023-07-02T00:25:46;33.86;31.86;41.05;;
69608;Laerm;57251;52.248;4.812;2023-07-02T00:25:57;35.80;32.68;44.50;;
69608;Laerm;57251;52.248;4.812;2023-07-02T00:26:07;33.55;31.81;35.13;;
69608;Laerm;57251;52.248;4.812;2023-07-02T00:26:17;33.44;31.57;37.65;;
69608;Laerm;57251;52.248;4.812;2023-07-02T00:26:27;33.51;32.07;34.82;;
69608;Laerm;57251;52.248;4.812;2023-07-02T00:26:38;42.07;31.96;57.28;;
69608;Laerm;57251;52.248;4.812;2023-07-02T00:26:48;42.03;33.36;51.34;;
69608;Laerm;57251;52.248;4.812;2023-07-02T00:26:58;42.04;32.87;51.65;;
69608;Laerm;57251;52.248;4.812;2023-07-02T00:27:08;34.79;32.11;45.81;;
69608;Laerm;57251;52.248;4.812;2023-07-02T00:27:19;34.27;32.61;38.92;;
69608;Laerm;57251;52.248;4.812;2023-07-02T00:27:29;38.88;32.17;50.30;;
69608;Laerm;57251;52.248;4.812;2023-07-02T00:27:39;33.02;31.81;34.48;;
69608;Laerm;57251;52.248;4.812;2023-07-02T00:27:50;33.11;31.74;40.03;;
69608;Laerm;57251;52.248;4.812;2023-07-02T00:28:00;34.06;32.09;41.27;;
69608;Laerm;57251;52.248;4.812;2023-07-02T00:28:10;43.78;32.66;59.80;;
69608;Laerm;57251;52.248;4.812;2023-07-02T00:28:20;37.08;32.64;46.24;;
69608;Laerm;57251;52.248;4.812;2023-07-02T00:28:31;38.34;32.55;52.31;;
69608;Laerm;57251;52.248;4.812;2023-07-02T00:28:41;34.37;32.56;41.15;;
69608;Laerm;57251;52.248;4.812;2023-07-02T00:28:52;40.00;33.07;52.75;;
69608;Laerm;57251;52.248;4.812;2023-07-02T00:29:03;53.35;32.43;68.54;;
69608;Laerm;57251;52.248;4.812;2023-07-02T00:29:17;33.40;32.08;36.32;;
69608;Laerm;57251;52.248;4.812;2023-07-02T00:29:28;33.11;31.61;34.75;;
69608;Laerm;57251;52.248;4.812;2023-07-02T00:29:38;35.63;31.88;42.72;;
69608;Laerm;57251;52.248;4.812;2023-07-02T00:29:48;33.25;31.95;35.40;;
69608;Laerm;57251;52.248;4.812;2023-07-02T00:29:58;32.86;31.60;35.39;;
69608;Laerm;57251;52.248;4.812;2023-07-02T00:30:09;33.15;31.85;34.99;;
69608;Laerm;57251;52.248;4.812;2023-07-02T00:30:19;34.88;32.89;36.54;;
69608;Laerm;57251;52.248;4.812;2023-07-02T00:30:29;34.97;32.79;39.37;;
69608;Laerm;57251;52.248;4.812;2023-07-02T00:30:39;34.73;32.74;36.41;;
69608;Laerm;57251;52.248;4.812;2023-07-02T00:30:49;36.44;34.64;41.83;;
69608;Laerm;57251;52.248;4.812;2023-07-02T00:31:00;36.30;33.66;47.12;;
69608;Laerm;57251;52.248;4.812;2023-07-02T00:31:11;38.42;34.10;45.04;;
69608;Laerm;57251;52.248;4.812;2023-07-02T00:31:21;40.57;34.14;52.80;;
69608;Laerm;57251;52.248;4.812;2023-07-02T00:31:32;35.41;32.72;41.29;;
69608;Laerm;57251;52.248;4.812;2023-07-02T00:31:43;33.77;31.92;37.09;;
69608;Laerm;57251;52.248;4.812;2023-07-02T00:31:53;38.28;31.64;49.47;;
69608;Laerm;57251;52.248;4.812;2023-07-02T00:32:03;39.70;32.58;53.79;;
69608;Laerm;57251;52.248;4.812;2023-07-02T00:32:13;38.99;32.97;48.77;;
69608;Laerm;57251;52.248;4.812;2023-07-02T00:32:24;51.59;33.44;63.19;;
69608;Laerm;57251;52.248;4.812;2023-07-02T00:32:34;46.76;34.87;59.58;;
69608;Laerm;57251;52.248;4.812;2023-07-02T00:32:44;38.98;34.63;47.63;;
69608;Laerm;57251;52.248;4.812;2023-07-02T00:32:55;36.81;34.46;43.26;;
69608;Laerm;57251;52.248;4.812;2023-07-02T00:33:05;35.12;33.75;38.32;;
69608;Laerm;57251;52.248;4.812;2023-07-02T00:33:16;34.55;33.36;36.72;;
69608;Laerm;57251;52.248;4.812;2023-07-02T00:33:26;49.35;32.34;63.00;;
69608;Laerm;57251;52.248;4.812;2023-07-02T00:33:36;45.76;32.68;62.62;;
69608;Laerm;57251;52.248;4.812;2023-07-02T00:33:46;38.14;33.02;51.84;;
69608;Laerm;57251;52.248;4.812;2023-07-02T00:33:57;42.95;32.40;56.46;;
69608;Laerm;57251;52.248;4.812;2023-07-02T00:34:07;34.13;31.89;43.14;;
69608;Laerm;57251;52.248;4.812;2023-07-02T00:34:18;40.07;32.99;52.58;;
69608;Laerm;57251;52.248;4.812;2023-07-02T00:34:28;46.79;33.71;59.61;;
69608;Laerm;57251;52.248;4.812;2023-07-02T00:34:38;35.41;32.90;42.77;;
69608;Laerm;57251;52.248;4.812;2023-07-02T00:34:48;41.16;32.52;51.38;;
69608;Laerm;57251;52.248;4.812;2023-07-02T00:34:59;39.01;32.53;50.69;;
69608;Laerm;57251;52.248;4.812;2023-07-02T00:35:09;34.10;32.07;42.37;;
69608;Laerm;57251;52.248;4.812;2023-07-02T00:35:19;33.45;31.94;35.91;;
69608;Laerm;57251;52.248;4.812;2023-07-02T00:35:29;34.67;32.49;44.99;;
69608;Laerm;57251;52.248;4.812;2023-07-02T00:35:40;33.98;32.46;35.57;;
69608;Laerm;57251;52.248;4.812;2023-07-02T00:35:50;34.76;33.15;36.49;;
69608;Laerm;57251;52.248;4.812;2023-07-02T00:36:00;36.53;34.07;39.98;;
69608;Laerm;57251;52.248;4.812;2023-07-02T00:36:10;43.39;36.72;53.03;;
69608;Laerm;57251;52.248;4.812;2023-07-02T00:36:24;37.93;33.10;52.00;;
69608;Laerm;57251;52.248;4.812;2023-07-02T00:36:34;34.07;32.70;35.83;;
69608;Laerm;57251;52.248;4.812;2023-07-02T00:36:44;34.60;32.32;37.62;;
69608;Laerm;57251;52.248;4.812;2023-07-02T00:36:55;33.85;32.36;35.04;;
69608;Laerm;57251;52.248;4.812;2023-07-02T00:37:05;33.75;32.09;36.21;;
69608;Laerm;57251;52.248;4.812;2023-07-02T00:37:15;34.90;32.61;43.20;;
69608;Laerm;57251;52.248;4.812;2023-07-02T00:37:25;36.48;32.91;48.76;;
69608;Laerm;57251;52.248;4.812;2023-07-02T00:37:36;41.30;34.15;54.26;;
69608;Laerm;57251;52.248;4.812;2023-07-02T00:37:46;40.02;35.76;49.75;;
69608;Laerm;57251;52.248;4.812;2023-07-02T00:37:56;42.80;35.35;55.95;;
69608;Laerm;57251;52.248;4.812;2023-07-02T00:38:06;35.04;33.38;36.59;;
69608;Laerm;57251;52.248;4.812;2023-07-02T00:38:16;35.00;33.12;42.69;;
69608;Laerm;57251;52.248;4.812;2023-07-02T00:38:27;34.42;32.81;36.27;;
69608;Laerm;57251;52.248;4.812;2023-07-02T00:38:37;38.41;33.76;52.21;;
69608;Laerm;57251;52.248;4.812;2023-07-02T00:38:48;34.62;33.09;39.03;;
69608;Laerm;57251;52.248;4.812;2023-07-02T00:38:58;38.81;33.55;48.78;;
69608;Laerm;57251;52.248;4.812;2023-07-02T00:39:09;50.50;34.65;65.14;;
69608;Laerm;57251;52.248;4.812;2023-07-02T00:39:19;53.30;38.04;66.61;;
69608;Laerm;57251;52.248;4.812;2023-07-02T00:39:29;59.15;38.71;70.31;;
69608;Laerm;57251;52.248;4.812;2023-07-02T00:39:39;53.93;36.89;68.60;;
69608;Laerm;57251;52.248;4.812;2023-07-02T00:39:49;55.19;34.82;68.26;;
69608;Laerm;57251;52.248;4.812;2023-07-02T00:40:00;43.01;34.11;56.16;;
69608;Laerm;57251;52.248;4.812;2023-07-02T00:40:10;41.08;33.72;54.26;;
69608;Laerm;57251;52.248;4.812;2023-07-02T00:40:20;38.46;33.28;55.05;;
69608;Laerm;57251;52.248;4.812;2023-07-02T00:40:31;47.40;33.45;61.05;;
69608;Laerm;57251;52.248;4.812;2023-07-02T00:40:41;35.97;33.48;45.78;;
69608;Laerm;57251;52.248;4.812;2023-07-02T00:40:51;34.91;33.20;36.61;;
69608;Laerm;57251;52.248;4.812;2023-07-02T00:41:01;59.90;33.88;72.74;;
69608;Laerm;57251;52.248;4.812;2023-07-02T00:41:12;35.99;34.43;37.74;;
69608;Laerm;57251;52.248;4.812;2023-07-02T00:41:22;43.70;35.83;57.09;;
69608;Laerm;57251;52.248;4.812;2023-07-02T00:41:32;41.33;35.16;57.03;;
69608;Laerm;57251;52.248;4.812;2023-07-02T00:41:43;36.40;34.28;45.92;;
69608;Laerm;57251;52.248;4.812;2023-07-02T00:42:02;34.46;32.53;36.78;;
69608;Laerm;57251;52.248;4.812;2023-07-02T00:42:14;34.74;32.19;42.52;;
69608;Laerm;57251;52.248;4.812;2023-07-02T00:42:24;42.89;34.09;55.69;;
69608;Laerm;57251;52.248;4.812;2023-07-02T00:42:39;35.22;33.00;42.99;;
69608;Laerm;57251;52.248;4.812;2023-07-02T00:42:49;33.46;31.86;37.55;;
69608;Laerm;57251;52.248;4.812;2023-07-02T00:42:59;35.25;32.21;42.19;;
69608;Laerm;57251;52.248;4.812;2023-07-02T00:43:09;35.85;32.50;47.60;;
69608;Laerm;57251;52.248;4.812;2023-07-02T00:43:22;36.20;32.76;47.33;;
69608;Laerm;57251;52.248;4.812;2023-07-02T00:43:33;35.43;33.07;47.01;;
69608;Laerm;57251;52.248;4.812;2023-07-02T00:43:43;35.29;33.29;43.71;;
69608;Laerm;57251;52.248;4.812;2023-07-02T00:43:53;34.41;33.08;35.46;;
69608;Laerm;57251;52.248;4.812;2023-07-02T00:44:06;35.48;33.18;47.23;;
69608;Laerm;57251;52.248;4.812;2023-07-02T00:44:16;45.53;33.24;59.99;;
69608;Laerm;57251;52.248;4.812;2023-07-02T00:44:27;40.86;32.41;53.72;;
69608;Laerm;57251;52.248;4.812;2023-07-02T00:44:37;34.76;32.72;41.53;;
69608;Laerm;57251;52.248;4.812;2023-07-02T00:44:50;34.36;32.68;36.23;;
69608;Laerm;57251;52.248;4.812;2023-07-02T00:45:02;40.64;32.39;56.99;;
69608;Laerm;57251;52.248;4.812;2023-07-02T00:45:12;34.54;32.48;42.09;;
69608;Laerm;57251;52.248;4.812;2023-07-02T00:45:23;34.12;31.89;39.93;;
69608;Laerm;57251;52.248;4.812;2023-07-02T00:45:36;33.17;31.94;36.26;;
69608;Laerm;57251;52.248;4.812;2023-07-02T00:45:48;36.51;32.06;48.86;;
69608;Laerm;57251;52.248;4.812;2023-07-02T00:45:58;38.76;32.80;51.97;;
69608;Laerm;57251;52.248;4.812;2023-07-02T00:46:10;34.35;32.74;36.94;;
69608;Laerm;57251;52.248;4.812;2023-07-02T00:46:22;33.89;31.75;38.21;;
69608;Laerm;57251;52.248;4.812;2023-07-02T00:46:35;33.12;31.40;35.24;;
69608;Laerm;57251;52.248;4.812;2023-07-02T00:46:45;33.48;31.87;38.59;;
69608;Laerm;57251;52.248;4.812;2023-07-02T00:46:55;35.03;32.76;41.74;;
69608;Laerm;57251;52.248;4.812;2023-07-02T00:47:06;36.95;32.49;48.92;;
69608;Laerm;57251;52.248;4.812;2023-07-02T00:47:16;35.49;32.39;50.92;;
69608;Laerm;57251;52.248;4.812;2023-07-02T00:47:27;33.70;32.06;42.65;;
69608;Laerm;57251;52.248;4.812;2023-07-02T00:47:37;33.83;32.16;39.08;;
69608;Laerm;57251;52.248;4.812;2023-07-02T00:47:47;34.57;32.08;41.44;;
69608;Laerm;57251;52.248;4.812;2023-07-02T00:47:57;32.89;31.51;35.40;;
69608;Laerm;57251;52.248;4.812;2023-07-02T00:48:08;33.90;31.50;44.50;;
69608;Laerm;57251;52.248;4.812;2023-07-02T00:48:18;32.71;31.70;34.27;;
69608;Laerm;57251;52.248;4.812;2023-07-02T00:48:29;33.25;31.47;38.63;;
69608;Laerm;57251;52.248;4.812;2023-07-02T00:48:39;33.77;31.47;37.38;;
69608;Laerm;57251;52.248;4.812;2023-07-02T00:48:50;35.27;32.31;43.54;;
69608;Laerm;57251;52.248;4.812;2023-07-02T00:49:01;33.19;31.47;38.87;;
69608;Laerm;57251;52.248;4.812;2023-07-02T00:49:14;33.10;31.83;36.93;;
69608;Laerm;57251;52.248;4.812;2023-07-02T00:49:24;34.21;32.13;40.34;;
69608;Laerm;57251;52.248;4.812;2023-07-02T00:49:35;34.02;32.62;35.14;;
69608;Laerm;57251;52.248;4.812;2023-07-02T00:49:45;33.45;31.89;34.85;;
69608;Laerm;57251;52.248;4.812;2023-07-02T00:49:55;33.27;31.64;37.43;;
69608;Laerm;57251;52.248;4.812;2023-07-02T00:50:06;34.38;31.13;45.25;;
69608;Laerm;57251;52.248;4.812;2023-07-02T00:50:16;33.22;31.06;44.22;;
69608;Laerm;57251;52.248;4.812;2023-07-02T00:50:26;32.52;31.28;34.93;;
69608;Laerm;57251;52.248;4.812;2023-07-02T00:50:37;36.18;31.51;44.72;;
69608;Laerm;57251;52.248;4.812;2023-07-02T00:50:47;35.87;33.34;39.90;;
69608;Laerm;57251;52.248;4.812;2023-07-02T00:50:58;34.75;32.84;37.74;;
69608;Laerm;57251;52.248;4.812;2023-07-02T00:51:09;33.38;31.88;35.27;;
69608;Laerm;57251;52.248;4.812;2023-07-02T00:51:23;33.37;31.59;35.53;;
69608;Laerm;57251;52.248;4.812;2023-07-02T00:51:33;33.39;31.72;35.37;;
69608;Laerm;57251;52.248;4.812;2023-07-02T00:51:43;33.85;32.03;40.43;;
69608;Laerm;57251;52.248;4.812;2023-07-02T00:51:54;41.27;32.39;54.12;;
69608;Laerm;57251;52.248;4.812;2023-07-02T00:52:04;39.53;32.10;50.54;;
69608;Laerm;57251;52.248;4.812;2023-07-02T00:52:15;40.79;31.54;51.61;;
69608;Laerm;57251;52.248;4.812;2023-07-02T00:52:25;33.29;31.48;36.44;;
69608;Laerm;57251;52.248;4.812;2023-07-02T00:52:36;33.08;31.45;35.00;;
69608;Laerm;57251;52.248;4.812;2023-07-02T00:52:46;34.25;32.01;37.61;;
69608;Laerm;57251;52.248;4.812;2023-07-02T00:52:56;36.31;33.02;41.66;;
69608;Laerm;57251;52.248;4.812;2023-07-02T00:53:07;34.30;32.13;42.75;;
69608;Laerm;57251;52.248;4.812;2023-07-02T00:53:17;33.66;32.05;42.03;;
69608;Laerm;57251;52.248;4.812;2023-07-02T00:53:27;33.08;31.55;34.94;;
69608;Laerm;57251;52.248;4.812;2023-07-02T00:53:37;32.78;30.86;37.81;;
69608;Laerm;57251;52.248;4.812;2023-07-02T00:53:49;32.12;30.83;33.36;;
69608;Laerm;57251;52.248;4.812;2023-07-02T00:53:59;32.87;30.45;36.82;;
69608;Laerm;57251;52.248;4.812;2023-07-02T00:54:09;33.07;30.98;37.10;;
69608;Laerm;57251;52.248;4.812;2023-07-02T00:54:20;33.44;31.07;39.95;;
69608;Laerm;57251;52.248;4.812;2023-07-02T00:54:30;32.53;31.04;35.09;;
69608;Laerm;57251;52.248;4.812;2023-07-02T00:54:40;33.40;31.66;39.54;;
69608;Laerm;57251;52.248;4.812;2023-07-02T00:54:51;37.37;32.00;46.61;;
69608;Laerm;57251;52.248;4.812;2023-07-02T00:55:01;40.79;32.28;55.94;;
69608;Laerm;57251;52.248;4.812;2023-07-02T00:55:12;33.58;32.12;38.09;;
69608;Laerm;57251;52.248;4.812;2023-07-02T00:55:22;32.89;31.72;36.04;;
69608;Laerm;57251;52.248;4.812;2023-07-02T00:55:32;38.03;31.97;51.05;;
69608;Laerm;57251;52.248;4.812;2023-07-02T00:55:42;39.52;31.91;54.26;;
69608;Laerm;57251;52.248;4.812;2023-07-02T00:55:52;33.46;31.84;37.60;;
69608;Laerm;57251;52.248;4.812;2023-07-02T00:56:03;38.88;32.64;52.64;;
69608;Laerm;57251;52.248;4.812;2023-07-02T00:56:13;39.15;33.67;50.59;;
69608;Laerm;57251;52.248;4.812;2023-07-02T00:56:24;34.46;31.67;36.98;;
69608;Laerm;57251;52.248;4.812;2023-07-02T00:56:35;34.53;31.98;42.03;;
69608;Laerm;57251;52.248;4.812;2023-07-02T00:56:45;33.20;31.40;42.01;;
69608;Laerm;57251;52.248;4.812;2023-07-02T00:56:56;42.73;31.57;58.59;;
69608;Laerm;57251;52.248;4.812;2023-07-02T00:57:06;40.74;32.15;55.20;;
69608;Laerm;57251;52.248;4.812;2023-07-02T00:57:16;33.68;32.09;35.86;;
69608;Laerm;57251;52.248;4.812;2023-07-02T00:57:26;34.99;32.63;45.07;;
69608;Laerm;57251;52.248;4.812;2023-07-02T00:57:39;34.96;33.10;42.40;;
69608;Laerm;57251;52.248;4.812;2023-07-02T00:57:50;40.31;33.47;52.23;;
69608;Laerm;57251;52.248;4.812;2023-07-02T00:58:01;37.84;33.06;47.45;;
69608;Laerm;57251;52.248;4.812;2023-07-02T00:58:11;35.34;31.73;48.22;;
69608;Laerm;57251;52.248;4.812;2023-07-02T00:58:25;35.32;32.42;45.34;;
69608;Laerm;57251;52.248;4.812;2023-07-02T00:58:37;35.87;32.49;47.30;;
69608;Laerm;57251;52.248;4.812;2023-07-02T00:58:48;49.13;31.87;61.32;;
69608;Laerm;57251;52.248;4.812;2023-07-02T00:59:00;46.15;32.58;54.09;;
69608;Laerm;57251;52.248;4.812;2023-07-02T00:59:10;51.46;34.75;60.96;;
69608;Laerm;57251;52.248;4.812;2023-07-02T00:59:21;43.97;31.58;56.88;;
69608;Laerm;57251;52.248;4.812;2023-07-02T00:59:32;34.02;31.42;45.22;;
69608;Laerm;57251;52.248;4.812;2023-07-02T00:59:45;35.27;31.21;47.12;;